Frankfurt Havaalanı’nda iniş ve kalkışlar iptal edildi

Frankfurt Havaalanı’nda iniş ve kalkışlar iptal edildi

Güvenlik sorunlarından dolayı adından sıkça bahsettiren Frankfurt Havaalanı’nda hızı saatte 110 kilometreyi bulan fırtına nedeniyle tüm iniş ve kalkışlar iptal edildi.

Fırtına ve dolu yağışı yüzünden kontrolün elden çıktığını açıklayan havaalanı işletmecisi Fraport, Frankfurt Havaalanı’nı kullanarak uçmak isteyenlerin uçacakları havayolu şirketinin internet sayfasına bakarak hareket etmelerini istedi. Havaalanı sözcüsü Dieter Hulick, fırtına nedeniyle herhangi bir işlem yapamadıklarını, bundan dolayı da iniş ve kalkışların hava durumu normalleşinceye kadar iptal edildiğini açıkladı. Uçuş iptalleri ve gecikmelere karşı www.frankfurt-airport.de sayfasında aktüel bilgilerin paylaşılacağı belirtildi.

Yılda 64 milyon yolcuya hizmet veren Frankfurt Havaalanı’nda günde 2 bine yakın uçuş gerçekleşiyor.

Geri

1
Kimler Neler Demiş?

avatar
1 Comment threads
0 Thread replies
0 Followers
 
Most reacted comment
Hottest comment thread
1 Comment authors
Haydarr Recent comment authors

This site uses Akismet to reduce spam. Learn how your comment data is processed.

En Yeniler Eskiler Beğenilenler
Haydarr
Ziyaretçi
Haydarr

EDDF 100820Z 24008KT 200V270 9999 FEW036 19/09 Q1024 NOSIG

0

0